createdAt,value
2018-10-01T00:00:01.109Z,15.80
2018-10-01T00:02:29.353Z,16.03
2018-10-01T00:04:57.534Z,15.80
2018-10-01T00:07:25.729Z,15.60
2018-10-01T00:09:53.893Z,16.77
2018-10-01T00:12:22.058Z,15.93
2018-10-01T00:14:50.237Z,15.50
2018-10-01T00:17:18.469Z,16.80
2018-10-01T00:19:52.149Z,17.33
2018-10-01T00:22:25.586Z,17.10
2018-10-01T00:24:53.757Z,16.87
2018-10-01T00:27:21.951Z,17.20
2018-10-01T00:29:50.121Z,15.80
2018-10-01T00:32:18.301Z,15.83
2018-10-01T00:34:46.483Z,16.00
2018-10-01T00:37:14.640Z,15.40
2018-10-01T00:39:42.873Z,16.67
2018-10-01T00:42:11.050Z,15.93
2018-10-01T00:44:39.258Z,16.93
2018-10-01T00:47:07.562Z,16.67
2018-10-01T00:49:35.773Z,16.70
2018-10-01T00:52:04.002Z,15.90
2018-10-01T00:54:32.506Z,16.83
2018-10-01T00:57:00.670Z,14.87
2018-10-01T00:59:28.932Z,17.00
2018-10-01T01:01:57.121Z,16.47
2018-10-01T01:04:25.380Z,17.07
2018-10-01T01:06:53.527Z,17.03
2018-10-01T01:09:21.710Z,17.20
2018-10-01T01:11:50.249Z,17.50
2018-10-01T01:14:18.412Z,16.97
2018-10-01T01:16:46.877Z,16.87
2018-10-01T01:19:15.062Z,18.40
2018-10-01T01:21:43.232Z,17.30
2018-10-01T01:24:11.641Z,18.50
2018-10-01T01:26:39.877Z,19.00
2018-10-01T01:29:08.075Z,18.10
2018-10-01T01:31:36.307Z,18.93
2018-10-01T01:34:04.537Z,18.30
2018-10-01T01:36:32.797Z,18.43
2018-10-01T01:39:01.089Z,18.63
2018-10-01T01:41:29.342Z,18.50
2018-10-01T01:43:57.657Z,17.87
2018-10-01T01:46:26.019Z,20.13
2018-10-01T01:48:54.230Z,18.13
2018-10-01T01:51:22.480Z,17.30
2018-10-01T01:53:50.742Z,17.00
2018-10-01T01:56:18.981Z,17.77
2018-10-01T01:58:47.158Z,16.80
2018-10-01T02:01:15.460Z,17.63
2018-10-01T02:03:43.692Z,16.90
2018-10-01T02:06:11.852Z,15.80
2018-10-01T02:08:40.416Z,16.93
2018-10-01T02:11:08.578Z,17.23
2018-10-01T02:13:36.737Z,17.93
2018-10-01T02:16:05.418Z,17.67
2018-10-01T02:18:33.590Z,17.20
2018-10-01T02:21:01.856Z,18.10
2018-10-01T02:23:30.032Z,18.57
2018-10-01T02:25:58.189Z,18.23
2018-10-01T02:28:26.357Z,18.67
2018-10-01T02:30:54.697Z,19.23
2018-10-01T02:33:22.922Z,18.17
2018-10-01T02:35:51.080Z,17.90
2018-10-01T02:38:19.303Z,17.63
2018-10-01T02:40:47.537Z,18.57
2018-10-01T02:43:15.717Z,16.70
2018-10-01T02:45:43.881Z,18.33
2018-10-01T02:48:12.339Z,16.50
2018-10-01T02:50:40.556Z,17.50
2018-10-01T02:53:14.061Z,16.40
2018-10-01T02:55:42.379Z,17.53
2018-10-01T02:58:10.763Z,17.07
2018-10-01T03:00:38.977Z,18.67
2018-10-01T03:03:07.162Z,17.30
2018-10-01T03:05:35.334Z,17.00
2018-10-01T03:08:03.514Z,17.00
2018-10-01T03:10:31.670Z,16.30
2018-10-01T03:13:00.257Z,16.57
2018-10-01T03:15:28.446Z,17.20
2018-10-01T03:17:56.646Z,14.67
2018-10-01T03:20:24.809Z,14.17
2018-10-01T03:22:52.999Z,15.60
2018-10-01T03:25:27.769Z,19.00
2018-10-01T03:27:56.073Z,15.03
2018-10-01T03:30:24.365Z,15.90
2018-10-01T03:32:52.540Z,15.27
2018-10-01T03:35:20.951Z,15.40
2018-10-01T03:37:49.173Z,15.47
2018-10-01T03:40:17.416Z,14.30
2018-10-01T03:42:45.517Z,45.17
2018-10-01T03:45:13.685Z,20.17
2018-10-01T03:47:42.029Z,15.60
2018-10-01T03:50:10.421Z,16.10
2018-10-01T03:52:38.649Z,15.77
2018-10-01T03:55:06.850Z,13.90
2018-10-01T03:57:35.035Z,14.57
2018-10-01T04:00:03.230Z,14.60
2018-10-01T04:02:31.393Z,15.17
2018-10-01T04:04:59.575Z,16.40
2018-10-01T04:07:27.748Z,16.43
2018-10-01T04:09:56.010Z,15.83
2018-10-01T04:12:24.186Z,14.73
2018-10-01T04:14:52.398Z,15.90
2018-10-01T04:17:20.748Z,15.70
2018-10-01T04:19:48.937Z,16.80
2018-10-01T04:22:17.235Z,16.00
2018-10-01T04:24:45.404Z,15.43
2018-10-01T04:27:13.596Z,14.90
2018-10-01T04:29:41.848Z,16.17
2018-10-01T04:32:10.020Z,17.83
2018-10-01T04:34:38.337Z,16.90
2018-10-01T04:37:06.573Z,19.10
2018-10-01T04:39:34.745Z,16.67
2018-10-01T04:42:02.933Z,16.80
2018-10-01T04:44:31.109Z,16.43
2018-10-01T04:46:59.280Z,19.80
2018-10-01T04:49:27.565Z,18.13
2018-10-01T04:51:56.034Z,19.30
2018-10-01T04:54:24.194Z,19.53
2018-10-01T04:56:52.401Z,24.57
2018-10-01T04:59:20.574Z,27.00
2018-10-01T05:01:48.831Z,20.20
2018-10-01T05:04:17.149Z,17.97
2018-10-01T05:06:45.364Z,16.47
2018-10-01T05:09:13.552Z,15.80
2018-10-01T05:11:41.894Z,15.93
2018-10-01T05:14:10.048Z,18.23
2018-10-01T05:16:38.204Z,28.80
2018-10-01T05:19:06.384Z,21.80
2018-10-01T05:21:34.943Z,17.10
2018-10-01T05:24:03.349Z,17.40
2018-10-01T05:26:31.553Z,36.33
2018-10-01T05:28:59.920Z,27.40
2018-10-01T05:31:28.146Z,32.67
2018-10-01T05:33:56.362Z,20.70
2018-10-01T05:36:24.620Z,19.53
2018-10-01T05:38:52.934Z,21.10
2018-10-01T05:41:21.162Z,19.50
2018-10-01T05:43:49.347Z,20.50
2018-10-01T05:46:17.605Z,18.93
2018-10-01T05:48:45.789Z,20.13
2018-10-01T05:51:13.957Z,21.77
2018-10-01T05:53:42.121Z,22.87
2018-10-01T05:56:10.442Z,21.93
2018-10-01T05:58:38.673Z,21.80
2018-10-01T06:01:07.053Z,22.00
2018-10-01T06:03:35.248Z,22.67
2018-10-01T06:06:03.397Z,21.97
2018-10-01T06:08:31.581Z,23.70
2018-10-01T06:10:59.756Z,24.57
2018-10-01T06:13:28.029Z,26.00
2018-10-01T06:15:56.248Z,25.03
2018-10-01T06:18:24.440Z,25.40
2018-10-01T06:20:52.608Z,27.17
2018-10-01T06:23:20.772Z,27.50
2018-10-01T06:25:48.945Z,23.33
2018-10-01T06:28:17.379Z,22.90
2018-10-01T06:30:45.543Z,22.27
2018-10-01T06:33:13.850Z,24.00
2018-10-01T06:35:42.113Z,24.27
2018-10-01T06:38:10.315Z,23.90
2018-10-01T06:40:38.558Z,24.37
2018-10-01T06:43:06.941Z,22.80
2018-10-01T06:45:35.101Z,23.53
2018-10-01T06:48:03.530Z,20.90
2018-10-01T06:50:31.757Z,20.87
2018-10-01T06:52:59.916Z,21.93
2018-10-01T06:55:28.103Z,22.20
2018-10-01T06:57:56.292Z,19.93
2018-10-01T07:00:24.469Z,22.40
2018-10-01T07:02:52.648Z,20.50
2018-10-01T07:05:20.961Z,20.73
2018-10-01T07:07:49.069Z,21.00
2018-10-01T07:10:17.250Z,20.97
2018-10-01T07:12:45.412Z,23.03
2018-10-01T07:15:13.588Z,19.97
2018-10-01T07:17:41.788Z,21.90
2018-10-01T07:20:10.050Z,20.87
2018-10-01T07:22:38.351Z,19.07
2018-10-01T07:25:06.664Z,21.07
2018-10-01T07:27:34.883Z,20.60
2018-10-01T07:30:03.218Z,19.10
2018-10-01T07:32:31.435Z,21.20
2018-10-01T07:34:59.771Z,21.37
2018-10-01T07:37:27.995Z,21.33
2018-10-01T07:39:56.197Z,18.87
2018-10-01T07:42:24.441Z,16.30
2018-10-01T07:44:52.725Z,18.30
2018-10-01T07:47:21.261Z,18.40
2018-10-01T07:49:49.517Z,17.07
2018-10-01T07:52:17.749Z,18.10
2018-10-01T07:54:45.927Z,17.40
2018-10-01T07:57:14.170Z,18.80
2018-10-01T07:59:42.651Z,16.87
2018-10-01T08:02:10.830Z,16.90
2018-10-01T08:04:38.937Z,17.07
2018-10-01T08:07:07.150Z,17.13
2018-10-01T08:09:35.392Z,16.80
2018-10-01T08:12:03.745Z,18.80
2018-10-01T08:14:31.918Z,19.57
2018-10-01T08:17:00.065Z,17.07
2018-10-01T08:19:28.292Z,17.20
2018-10-01T08:21:56.474Z,16.77
2018-10-01T08:24:24.748Z,15.67
2018-10-01T08:26:53.025Z,15.13
2018-10-01T08:29:21.202Z,15.33
2018-10-01T08:31:49.426Z,16.27
2018-10-01T08:34:17.632Z,15.70
2018-10-01T08:36:45.828Z,16.20
2018-10-01T08:39:15.168Z,15.37
2018-10-01T08:41:43.389Z,15.20
2018-10-01T08:44:12.598Z,14.93
2018-10-01T08:46:40.720Z,14.90
2018-10-01T08:49:27.930Z,13.00
2018-10-01T08:52:06.355Z,14.00
2018-10-01T08:54:36.393Z,14.53
2018-10-01T08:57:04.797Z,13.07
2018-10-01T08:59:33.408Z,12.60
2018-10-01T09:02:02.829Z,12.73
2018-10-01T09:04:31.205Z,13.63
2018-10-01T09:06:59.442Z,14.00
2018-10-01T09:09:27.719Z,14.33
2018-10-01T09:11:55.921Z,11.40
2018-10-01T09:14:24.136Z,12.60
2018-10-01T09:16:52.381Z,12.83
2018-10-01T09:19:20.819Z,13.50
2018-10-01T09:21:49.001Z,13.40
2018-10-01T09:24:17.165Z,13.60
2018-10-01T09:26:45.361Z,12.00
2018-10-01T09:29:13.724Z,12.00
2018-10-01T09:31:41.873Z,12.63
2018-10-01T09:34:10.056Z,12.10
2018-10-01T09:36:38.389Z,11.07
2018-10-01T09:39:08.284Z,10.33
2018-10-01T09:41:36.672Z,10.60
2018-10-01T09:44:05.027Z,9.23
2018-10-01T09:46:33.179Z,8.53
2018-10-01T09:49:01.346Z,9.87
2018-10-01T09:51:29.536Z,9.70
2018-10-01T09:53:57.688Z,10.00
2018-10-01T09:56:25.999Z,10.27
2018-10-01T09:58:54.159Z,10.17
2018-10-01T10:01:22.325Z,10.50
2018-10-01T10:03:50.561Z,9.63
2018-10-01T10:06:18.709Z,9.37
2018-10-01T10:08:46.885Z,9.73
2018-10-01T10:11:15.124Z,10.43
2018-10-01T10:13:43.309Z,10.50
2018-10-01T10:16:11.647Z,10.23
2018-10-01T10:18:39.725Z,10.27
2018-10-01T10:21:07.897Z,9.93
2018-10-01T10:23:36.255Z,9.37
2018-10-01T10:26:04.543Z,8.50
2018-10-01T10:28:32.809Z,8.63
2018-10-01T10:31:01.397Z,8.53
2018-10-01T10:33:29.544Z,8.10
2018-10-01T10:35:57.817Z,7.57
2018-10-01T10:38:25.992Z,7.63
2018-10-01T10:40:54.136Z,7.67
2018-10-01T10:43:22.434Z,9.30
2018-10-01T10:45:50.577Z,7.47
2018-10-01T10:48:18.905Z,7.33
2018-10-01T10:50:47.154Z,8.57
2018-10-01T10:53:15.316Z,7.70
2018-10-01T10:55:43.508Z,7.20
2018-10-01T10:58:11.778Z,7.80
2018-10-01T11:00:39.928Z,7.23
2018-10-01T11:03:08.102Z,8.33
2018-10-01T11:05:36.301Z,8.60
2018-10-01T11:08:04.471Z,8.10
2018-10-01T11:10:32.641Z,7.37
2018-10-01T11:13:00.841Z,7.80
2018-10-01T11:15:29.001Z,7.80
2018-10-01T11:17:57.207Z,6.97
2018-10-01T11:20:25.632Z,7.40
2018-10-01T11:22:53.579Z,7.70
2018-10-01T11:25:21.812Z,7.00
2018-10-01T11:27:50.183Z,7.90
2018-10-01T11:30:18.203Z,7.83
2018-10-01T11:32:46.339Z,7.20
2018-10-01T11:35:14.735Z,7.27
2018-10-01T11:37:42.709Z,7.43
2018-10-01T11:40:11.115Z,7.20
2018-10-01T11:42:39.353Z,6.87
2018-10-01T11:45:07.611Z,6.90
2018-10-01T11:47:35.750Z,6.03
2018-10-01T11:50:03.941Z,5.43
2018-10-01T11:52:32.115Z,6.63
2018-10-01T11:55:00.385Z,5.83
2018-10-01T11:57:28.715Z,5.30
2018-10-01T11:59:56.960Z,5.10
2018-10-01T12:02:25.645Z,5.30
2018-10-01T12:04:53.932Z,5.10
2018-10-01T12:07:22.115Z,4.97
2018-10-01T12:09:50.393Z,4.70
2018-10-01T12:12:18.522Z,4.10
2018-10-01T12:14:47.125Z,4.30
2018-10-01T12:17:15.402Z,3.70
2018-10-01T12:19:43.590Z,3.83
2018-10-01T12:22:11.888Z,4.07
2018-10-01T12:24:40.018Z,3.60
2018-10-01T12:27:08.490Z,3.37
2018-10-01T12:29:36.679Z,3.70
2018-10-01T12:32:04.862Z,3.07
2018-10-01T12:34:33.142Z,3.20
2018-10-01T12:37:01.341Z,4.03
2018-10-01T12:39:29.821Z,3.20
2018-10-01T12:41:58.061Z,3.50
2018-10-01T12:44:26.301Z,3.20
2018-10-01T12:46:54.468Z,4.17
2018-10-01T12:49:22.692Z,2.90
2018-10-01T12:51:51.057Z,3.30
2018-10-01T12:54:19.305Z,3.50
2018-10-01T12:56:47.937Z,3.40
2018-10-01T12:59:16.253Z,3.77
2018-10-01T13:01:44.501Z,4.07
2018-10-01T13:04:12.674Z,4.00
2018-10-01T13:06:40.905Z,3.20
2018-10-01T13:09:10.760Z,2.73
2018-10-01T13:11:39.326Z,3.13
2018-10-01T13:14:07.776Z,3.30
2018-10-01T13:16:36.108Z,3.10
2018-10-01T13:19:04.369Z,2.63
2018-10-01T13:21:32.509Z,3.27
2018-10-01T13:24:00.695Z,2.93
2018-10-01T13:26:29.173Z,3.10
2018-10-01T13:28:57.559Z,3.33
2018-10-01T13:31:25.881Z,2.77
2018-10-01T13:33:54.047Z,2.90
2018-10-01T13:36:22.493Z,2.97
2018-10-01T13:38:50.632Z,3.10
2018-10-01T13:41:18.885Z,4.30
2018-10-01T13:43:47.367Z,3.53
2018-10-01T13:46:15.777Z,3.40
2018-10-01T13:48:45.515Z,4.13
2018-10-01T13:51:13.734Z,3.23
2018-10-01T13:53:41.952Z,3.20
2018-10-01T13:56:10.120Z,3.97
2018-10-01T13:58:38.269Z,3.83
2018-10-01T14:01:06.496Z,6.07
2018-10-01T14:03:34.860Z,3.30
2018-10-01T14:06:03.012Z,3.90
2018-10-01T14:08:31.188Z,3.87
2018-10-01T14:10:59.372Z,6.23
2018-10-01T14:13:27.655Z,3.60
2018-10-01T14:15:55.695Z,3.10
2018-10-01T14:18:23.910Z,4.33
2018-10-01T14:20:52.131Z,4.30
2018-10-01T14:23:20.290Z,4.20
2018-10-01T14:25:48.665Z,5.30
2018-10-01T14:28:16.897Z,5.90
2018-10-01T14:30:45.050Z,9.50
2018-10-01T14:33:13.225Z,6.23
2018-10-01T14:35:41.393Z,5.23
2018-10-01T14:38:09.653Z,5.53
2018-10-01T14:40:37.859Z,6.30
2018-10-01T14:43:06.208Z,6.40
2018-10-01T14:45:34.320Z,6.57
2018-10-01T14:48:02.574Z,7.73
2018-10-01T14:50:30.771Z,6.90
2018-10-01T14:52:59.005Z,6.53
2018-10-01T14:55:27.261Z,6.57
2018-10-01T14:57:55.492Z,7.70
2018-10-01T15:00:23.732Z,6.10
2018-10-01T15:02:51.852Z,6.63
2018-10-01T15:05:20.537Z,7.00
2018-10-01T15:07:48.728Z,6.33
2018-10-01T15:10:17.844Z,8.33
2018-10-01T15:12:46.064Z,8.13
2018-10-01T15:15:14.344Z,8.17
2018-10-01T15:17:42.524Z,8.00
2018-10-01T15:20:10.705Z,8.17
2018-10-01T15:22:39.034Z,7.20
2018-10-01T15:25:07.269Z,6.97
2018-10-01T15:27:35.412Z,6.30
2018-10-01T15:30:03.660Z,5.90
2018-10-01T15:32:31.924Z,6.90
2018-10-01T15:35:00.464Z,8.40
2018-10-01T15:37:28.737Z,7.27
2018-10-01T15:39:56.935Z,8.83
2018-10-01T15:42:25.200Z,7.33
2018-10-01T15:44:53.649Z,7.70
2018-10-01T15:47:21.861Z,8.20
2018-10-01T15:49:50.030Z,7.10
2018-10-01T15:52:18.189Z,7.00
2018-10-01T15:54:46.637Z,7.70
2018-10-01T15:57:14.797Z,6.40
2018-10-01T15:59:43.272Z,5.13
2018-10-01T16:02:11.457Z,4.87
2018-10-01T16:04:39.709Z,4.07
2018-10-01T16:07:08.100Z,3.10
2018-10-01T16:09:36.384Z,2.63
2018-10-01T16:12:04.610Z,3.40
2018-10-01T16:14:32.777Z,3.07
2018-10-01T16:17:00.964Z,3.73
2018-10-01T16:19:29.116Z,3.63
2018-10-01T16:21:57.337Z,3.93
2018-10-01T16:24:25.506Z,3.40
2018-10-01T16:26:53.753Z,5.50
2018-10-01T16:29:22.040Z,4.30
2018-10-01T16:31:50.217Z,4.23
2018-10-01T16:34:18.397Z,4.60
2018-10-01T16:36:46.653Z,6.53
2018-10-01T16:39:14.833Z,7.10
2018-10-01T16:41:43.009Z,10.27
2018-10-01T16:44:11.175Z,8.47
2018-10-01T16:46:39.509Z,11.90
2018-10-01T16:49:07.714Z,7.77
2018-10-01T16:51:35.900Z,8.80
2018-10-01T16:54:04.105Z,8.20
2018-10-01T16:56:32.317Z,10.53
2018-10-01T16:59:00.525Z,8.30
2018-10-01T17:01:29.055Z,6.97
2018-10-01T17:03:57.240Z,7.10
2018-10-01T17:06:33.248Z,7.20
2018-10-01T17:09:02.290Z,6.57
2018-10-01T17:11:30.776Z,14.77
2018-10-01T17:13:58.970Z,10.27
2018-10-01T17:16:27.174Z,11.50
2018-10-01T17:18:55.448Z,12.63
2018-10-01T17:21:23.746Z,9.67
2018-10-01T17:23:51.910Z,8.50
2018-10-01T17:26:20.102Z,7.40
2018-10-01T17:28:48.325Z,8.17
2018-10-01T17:31:16.665Z,8.87
2018-10-01T17:33:44.934Z,24.67
2018-10-01T17:36:13.428Z,20.83
2018-10-01T17:38:41.642Z,15.30
2018-10-01T17:41:09.822Z,9.40
2018-10-01T17:43:38.435Z,10.60
2018-10-01T17:46:06.627Z,12.27
2018-10-01T17:48:35.455Z,9.90
2018-10-01T17:51:03.677Z,8.80
2018-10-01T17:53:32.028Z,7.70
2018-10-01T17:56:00.213Z,8.10
2018-10-01T17:58:28.553Z,7.70
2018-10-01T18:00:56.705Z,8.27
2018-10-01T18:03:24.871Z,9.70
2018-10-01T18:05:53.131Z,8.10
2018-10-01T18:08:21.245Z,14.53
2018-10-01T18:10:49.421Z,10.60
2018-10-01T18:13:17.609Z,20.60
2018-10-01T18:15:45.844Z,15.73
2018-10-01T18:18:14.125Z,11.30
2018-10-01T18:20:42.288Z,9.80
2018-10-01T18:23:10.482Z,8.50
2018-10-01T18:25:38.689Z,10.40
2018-10-01T18:28:07.058Z,10.30
2018-10-01T18:30:35.218Z,9.83
2018-10-01T18:33:03.604Z,9.43
2018-10-01T18:35:31.913Z,9.80
2018-10-01T18:38:00.117Z,8.80
2018-10-01T18:40:28.454Z,10.50
2018-10-01T18:42:56.748Z,8.40
2018-10-01T18:45:24.933Z,9.20
2018-10-01T18:47:53.284Z,9.87
2018-10-01T18:50:21.420Z,9.67
2018-10-01T18:52:49.631Z,11.60
2018-10-01T18:55:17.805Z,11.10
2018-10-01T18:57:46.093Z,16.53
2018-10-01T19:00:15.304Z,18.20
2018-10-01T19:02:45.060Z,12.63
2018-10-01T19:05:14.395Z,11.70
2018-10-01T19:07:43.453Z,10.20
2018-10-01T19:10:13.096Z,9.43
2018-10-01T19:12:41.978Z,10.20
2018-10-01T19:15:12.177Z,9.50
2018-10-01T19:17:40.690Z,9.83
2018-10-01T19:20:08.950Z,9.67
2018-10-01T19:22:37.146Z,16.97
2018-10-01T19:25:05.594Z,10.90
2018-10-01T19:27:33.922Z,11.40
2018-10-01T19:30:02.218Z,10.00
2018-10-01T19:32:30.372Z,10.37
2018-10-01T19:34:58.576Z,9.10
2018-10-01T19:37:26.845Z,9.80
2018-10-01T19:39:55.133Z,9.20
2018-10-01T19:42:23.364Z,8.23
2018-10-01T19:44:51.588Z,7.77
2018-10-01T19:47:19.760Z,12.13
2018-10-01T19:49:48.029Z,7.50
2018-10-01T19:52:16.209Z,7.03
2018-10-01T19:54:44.481Z,6.23
2018-10-01T19:57:12.776Z,6.30
2018-10-01T19:59:40.909Z,6.50
2018-10-01T20:02:09.161Z,12.97
2018-10-01T20:04:37.376Z,6.10
2018-10-01T20:07:05.549Z,9.77
2018-10-01T20:09:33.717Z,9.00
2018-10-01T20:12:02.031Z,11.70
2018-10-01T20:14:30.233Z,9.70
2018-10-01T20:16:58.541Z,6.75
2018-10-01T20:19:26.875Z,6.67
2018-10-01T20:21:55.086Z,6.80
2018-10-01T20:24:23.382Z,7.37
2018-10-01T20:26:51.580Z,6.23
2018-10-01T20:29:20.078Z,14.13
2018-10-01T20:31:48.018Z,8.50
2018-10-01T20:34:16.250Z,10.20
2018-10-01T20:36:44.496Z,6.13
2018-10-01T20:39:12.806Z,6.80
2018-10-01T20:41:41.019Z,13.27
2018-10-01T20:44:09.178Z,20.20
2018-10-01T20:46:37.425Z,7.62
2018-10-01T20:49:05.706Z,7.17
2018-10-01T20:51:33.913Z,8.30
2018-10-01T20:54:02.129Z,13.27
2018-10-01T20:56:30.321Z,19.20
2018-10-01T20:58:58.604Z,7.80
2018-10-01T21:01:26.761Z,7.40
2018-10-01T21:03:55.025Z,5.80
2018-10-01T21:06:23.305Z,5.13
2018-10-01T21:08:51.507Z,6.17
2018-10-01T21:11:20.607Z,7.17
2018-10-01T21:13:48.843Z,9.40
2018-10-01T21:16:17.117Z,6.57
2018-10-01T21:18:45.549Z,6.27
2018-10-01T21:21:13.774Z,4.93
2018-10-01T21:23:41.968Z,5.40
2018-10-01T21:26:10.230Z,5.57
2018-10-01T21:28:38.388Z,5.57
2018-10-01T21:31:06.564Z,6.90
2018-10-01T21:33:34.916Z,7.30
2018-10-01T21:36:03.386Z,8.30
2018-10-01T21:38:31.624Z,7.87
2018-10-01T21:40:59.936Z,7.23
2018-10-01T21:43:28.059Z,10.57
2018-10-01T21:45:56.258Z,8.53
2018-10-01T21:48:25.438Z,5.60
2018-10-01T21:50:53.618Z,5.00
2018-10-01T21:53:21.882Z,5.40
2018-10-01T21:55:50.046Z,5.60
2018-10-01T21:58:18.229Z,4.90
2018-10-01T22:00:51.884Z,5.17
2018-10-01T22:03:20.042Z,4.80
2018-10-01T22:05:48.198Z,5.90
2018-10-01T22:08:16.455Z,9.40
2018-10-01T22:10:44.621Z,6.80
2018-10-01T22:13:12.787Z,5.00
2018-10-01T22:15:45.169Z,4.87
2018-10-01T22:18:14.937Z,5.03
2018-10-01T22:20:43.149Z,4.50
2018-10-01T22:23:11.345Z,4.70
2018-10-01T22:25:39.671Z,5.60
2018-10-01T22:28:08.240Z,4.20
2018-10-01T22:30:36.409Z,5.10
2018-10-01T22:33:04.652Z,5.37
2018-10-01T22:35:32.840Z,4.30
2018-10-01T22:38:01.254Z,4.20
2018-10-01T22:40:29.724Z,4.83
2018-10-01T22:42:57.882Z,5.20
2018-10-01T22:45:26.377Z,4.30
2018-10-01T22:47:54.605Z,4.65
2018-10-01T22:50:22.755Z,4.70
2018-10-01T22:52:50.981Z,4.47
2018-10-01T22:55:19.461Z,4.17
2018-10-01T22:57:47.717Z,3.90
2018-10-01T23:00:15.989Z,3.47
2018-10-01T23:02:44.139Z,3.57
2018-10-01T23:05:12.301Z,3.17
2018-10-01T23:07:40.525Z,2.67
2018-10-01T23:10:08.685Z,2.50
2018-10-01T23:12:36.829Z,2.87
2018-10-01T23:15:05.117Z,2.20
2018-10-01T23:17:33.260Z,2.85
2018-10-01T23:20:01.531Z,2.60
2018-10-01T23:22:29.796Z,2.00
2018-10-01T23:24:57.961Z,1.80
2018-10-01T23:27:26.125Z,2.20
2018-10-01T23:29:54.343Z,2.43
2018-10-01T23:32:22.571Z,2.03
2018-10-01T23:34:50.813Z,1.57
2018-10-01T23:37:19.052Z,1.30
2018-10-01T23:39:47.208Z,1.77
2018-10-01T23:42:15.448Z,1.57
2018-10-01T23:44:43.647Z,1.90
2018-10-01T23:47:11.796Z,1.67
2018-10-01T23:49:40.000Z,1.30
2018-10-01T23:52:08.188Z,1.57
2018-10-01T23:54:36.331Z,1.80
2018-10-01T23:57:04.506Z,1.47
2018-10-01T23:59:32.693Z,1.97
